Air Resources Laboratory banner image
Air Resources Laboratory web site National Oceanic and Atmospheric Administration (NOAA)

nv metar


KBAM 231955Z AUTO 25008G18KT 10SM CLR 22/06 A2994 RMK AO1=
KDRA 231955Z AUTO 32006G16KT 10SM FEW100 28/01 A2990 RMK AO2 SLP083 T02780011=
KEKO 231956Z AUTO 16010KT 10SM SCT060 23/07 A2995 RMK AO2 SLP104 T02280072=
KELY 231953Z AUTO 17005KT 10SM BKN065 BKN080 17/03 A3005 RMK AO2 LTG DSNT NW
 SLP110 T01670028=
KINS 231955Z AUTO 09011G23KT 10SM FEW120 FEW150 SCT200 29/M02 A2988 RMK AO2
 WSHFT 43 SLP076 $=
KLAS 231956Z 00000KT 10SM FEW120 31/M01 A2987 RMK AO2 SLP089 T03061006=
KLOL 231953Z AUTO 21008KT 10SM CLR 24/06 A2990 RMK AO2 LTG DSNT N SLP093
 T02390061=
KLSV 231958Z AUTO 18007KT 10SM CLR 30/01 A2985 RMK AO2 SLP087 T03000014=
KNFL 231956Z 20009KT 10SM FEW040 SCT060 BKN120 BKN180 23/08 A2990 RMK AO2
 SLP100 CB DSNT SE-SW-NW-NE T02330078=
KP68 231953Z AUTO 33004KT 13/07 A3004 RMK AO1 PK WND 18027/1912 SLP121
 T01330067=
KTPH 231956Z AUTO 18014G20KT 10SM BKN120 23/02 A3001 RMK AO2 SLP097 T02280022=
KVGT 231953Z 11007KT 10SM CLR 30/M02 A2987 RMK AO2 SLP108 T03001017=
KWMC 231956Z AUTO 14009G16KT 10SM CLR 22/10 A2990 RMK AO2 RAE08 SLP086 P0000
 T02220100=